createdAt,value
2023-04-18T00:01:32.806Z,100.00
2023-04-18T00:03:59.623Z,100.00
2023-04-18T00:06:26.813Z,100.00
2023-04-18T00:08:53.498Z,100.00
2023-04-18T00:11:20.842Z,100.00
2023-04-18T00:13:48.880Z,100.00
2023-04-18T00:16:15.727Z,100.00
2023-04-18T00:18:42.349Z,100.00
2023-04-18T00:21:08.877Z,100.00
2023-04-18T00:23:36.192Z,100.00
2023-04-18T00:26:03.171Z,100.00
2023-04-18T00:28:29.797Z,100.00
2023-04-18T00:30:56.724Z,100.00
2023-04-18T00:33:23.482Z,100.00
2023-04-18T00:35:50.058Z,100.00
2023-04-18T00:38:16.816Z,100.00
2023-04-18T00:40:43.517Z,100.00
2023-04-18T00:43:13.025Z,100.00
2023-04-18T00:45:40.033Z,100.00
2023-04-18T00:48:07.023Z,100.00
2023-04-18T00:50:37.677Z,100.00
2023-04-18T00:53:05.064Z,100.00
2023-04-18T00:55:31.682Z,100.00
2023-04-18T00:57:58.306Z,100.00
2023-04-18T01:00:24.982Z,100.00
2023-04-18T01:02:54.118Z,100.00
2023-04-18T01:05:21.564Z,100.00
2023-04-18T01:07:48.577Z,100.00
2023-04-18T01:10:15.289Z,100.00
2023-04-18T01:12:42.036Z,100.00
2023-04-18T01:15:09.489Z,100.00
2023-04-18T01:17:36.226Z,100.00
2023-04-18T01:20:06.388Z,100.00
2023-04-18T01:22:33.850Z,100.00
2023-04-18T01:25:00.769Z,100.00
2023-04-18T01:27:27.373Z,100.00
2023-04-18T01:29:54.203Z,100.00
2023-04-18T01:32:22.608Z,100.00
2023-04-18T01:34:49.233Z,100.00
2023-04-18T01:37:15.846Z,100.00
2023-04-18T01:39:42.469Z,100.00
2023-04-18T01:42:09.014Z,100.00
2023-04-18T01:44:35.516Z,100.00
2023-04-18T01:47:02.378Z,100.00
2023-04-18T01:49:29.140Z,100.00
2023-04-18T01:51:55.801Z,100.00
2023-04-18T01:54:22.407Z,100.00
2023-04-18T01:56:48.951Z,100.00
2023-04-18T01:59:15.608Z,100.00
2023-04-18T02:01:42.919Z,100.00
2023-04-18T02:04:09.531Z,100.00
2023-04-18T02:06:36.134Z,100.00
2023-04-18T02:09:02.809Z,100.00
2023-04-18T02:11:30.152Z,100.00
2023-04-18T02:13:56.794Z,100.00
2023-04-18T02:16:23.417Z,100.00
2023-04-18T02:18:52.760Z,100.00
2023-04-18T02:21:19.512Z,100.00
2023-04-18T02:23:46.070Z,100.00
2023-04-18T02:26:12.639Z,100.00
2023-04-18T02:28:39.402Z,100.00
2023-04-18T02:31:06.592Z,100.00
2023-04-18T02:33:33.250Z,100.00
2023-04-18T02:35:59.803Z,100.00
2023-04-18T02:38:26.375Z,100.00
2023-04-18T02:40:52.904Z,100.00
2023-04-18T02:43:19.445Z,100.00
2023-04-18T02:45:46.062Z,100.00
2023-04-18T02:48:12.798Z,100.00
2023-04-18T02:50:39.403Z,100.00
2023-04-18T02:53:06.127Z,100.00
2023-04-18T02:55:32.704Z,100.00
2023-04-18T02:57:59.237Z,100.00
2023-04-18T03:00:25.929Z,100.00
2023-04-18T03:02:53.522Z,100.00
2023-04-18T03:05:20.510Z,100.00
2023-04-18T03:07:47.082Z,100.00
2023-04-18T03:10:13.834Z,100.00
2023-04-18T03:12:40.444Z,100.00
2023-04-18T03:15:07.768Z,100.00
2023-04-18T03:17:34.506Z,100.00
2023-04-18T03:20:01.099Z,100.00
2023-04-18T03:22:27.678Z,100.00
2023-04-18T03:24:54.203Z,100.00
2023-04-18T03:27:20.767Z,100.00
2023-04-18T03:29:47.347Z,100.00
2023-04-18T03:32:14.013Z,100.00
2023-04-18T03:34:40.593Z,100.00
2023-04-18T03:37:07.145Z,100.00
2023-04-18T03:39:33.689Z,100.00
2023-04-18T03:42:01.656Z,100.00
2023-04-18T03:44:28.194Z,100.00
2023-04-18T03:46:56.084Z,100.00
2023-04-18T03:49:22.585Z,100.00
2023-04-18T03:51:49.282Z,100.00
2023-04-18T03:54:16.945Z,100.00
2023-04-18T03:56:44.170Z,100.00
2023-04-18T03:59:11.660Z,100.00
2023-04-18T04:01:38.415Z,100.00
2023-04-18T04:04:05.918Z,100.00
2023-04-18T04:06:32.721Z,100.00
2023-04-18T04:08:59.327Z,100.00
2023-04-18T04:11:26.335Z,100.00
2023-04-18T04:13:53.138Z,100.00
2023-04-18T04:16:19.848Z,100.00
2023-04-18T04:18:46.538Z,100.00
2023-04-18T04:21:13.128Z,100.00
2023-04-18T04:23:42.327Z,100.00
2023-04-18T04:26:09.296Z,100.00
2023-04-18T04:28:36.241Z,100.00
2023-04-18T04:31:03.699Z,100.00
2023-04-18T04:33:33.386Z,100.00
2023-04-18T04:36:01.442Z,100.00
2023-04-18T04:38:31.238Z,100.00
2023-04-18T04:40:58.434Z,100.00
2023-04-18T04:43:26.186Z,100.00
2023-04-18T04:45:53.263Z,100.00
2023-04-18T04:48:22.128Z,100.00
2023-04-18T04:50:53.775Z,100.00
2023-04-18T04:53:20.643Z,100.00
2023-04-18T04:55:47.748Z,100.00
2023-04-18T04:58:14.666Z,100.00
2023-04-18T05:00:41.452Z,100.00
2023-04-18T05:03:08.488Z,100.00
2023-04-18T05:05:35.401Z,100.00
2023-04-18T05:08:02.775Z,100.00
2023-04-18T05:10:29.685Z,100.00
2023-04-18T05:12:56.991Z,100.00
2023-04-18T05:15:23.737Z,100.00
2023-04-18T05:17:50.704Z,100.00
2023-04-18T05:20:17.353Z,100.00
2023-04-18T05:22:43.987Z,100.00
2023-04-18T05:25:10.781Z,100.00
2023-04-18T05:27:37.375Z,100.00
2023-04-18T05:30:04.419Z,100.00
2023-04-18T05:32:31.068Z,100.00
2023-04-18T05:34:57.689Z,100.00
2023-04-18T05:37:24.500Z,100.00
2023-04-18T05:39:51.071Z,100.00
2023-04-18T05:42:17.611Z,100.00
2023-04-18T05:44:44.238Z,100.00
2023-04-18T05:47:10.921Z,100.00
2023-04-18T05:49:37.548Z,100.00
2023-04-18T05:52:04.338Z,100.00
2023-04-18T05:54:30.958Z,100.00
2023-04-18T05:56:57.608Z,100.00
2023-04-18T05:59:24.925Z,100.00
2023-04-18T06:01:51.601Z,100.00
2023-04-18T06:04:19.860Z,100.00
2023-04-18T06:06:46.927Z,100.00
2023-04-18T06:09:13.817Z,100.00
2023-04-18T06:11:40.589Z,100.00
2023-04-18T06:14:08.012Z,100.00
2023-04-18T06:16:37.275Z,100.00
2023-04-18T06:19:05.359Z,100.00
2023-04-18T06:21:32.211Z,100.00
2023-04-18T06:23:58.816Z,100.00
2023-04-18T06:26:25.610Z,100.00
2023-04-18T06:28:52.247Z,100.00
2023-04-18T06:31:18.821Z,100.00
2023-04-18T06:33:45.404Z,100.00
2023-04-18T06:36:12.068Z,100.00
2023-04-18T06:38:38.728Z,100.00
2023-04-18T06:41:05.408Z,100.00
2023-04-18T06:43:32.026Z,100.00
2023-04-18T06:45:59.243Z,100.00
2023-04-18T06:48:25.968Z,100.00
2023-04-18T06:50:52.586Z,100.00
2023-04-18T06:53:19.150Z,100.00
2023-04-18T06:55:45.954Z,100.00
2023-04-18T06:58:14.379Z,100.00
2023-04-18T07:00:40.983Z,100.00
2023-04-18T07:03:11.422Z,100.00
2023-04-18T07:05:41.550Z,100.00
2023-04-18T07:08:08.585Z,100.00
2023-04-18T07:10:35.237Z,100.00
2023-04-18T07:13:01.880Z,100.00
2023-04-18T07:15:36.982Z,100.00
2023-04-18T07:18:03.704Z,100.00
2023-04-18T07:20:30.305Z,100.00
2023-04-18T07:22:56.913Z,100.00
2023-04-18T07:25:23.505Z,100.00
2023-04-18T07:27:50.392Z,100.00
2023-04-18T07:30:17.060Z,100.00
2023-04-18T07:32:43.782Z,100.00
2023-04-18T07:35:10.784Z,100.00
2023-04-18T07:37:37.472Z,100.00
2023-04-18T07:40:05.036Z,99.72
2023-04-18T07:42:31.734Z,99.55
2023-04-18T07:44:59.084Z,100.00
2023-04-18T07:47:29.810Z,100.00
2023-04-18T07:49:57.608Z,96.32
2023-04-18T07:52:24.380Z,98.12
2023-04-18T07:54:51.289Z,95.92
2023-04-18T07:57:17.984Z,96.52
2023-04-18T07:59:44.662Z,95.60
2023-04-18T08:02:11.299Z,97.38
2023-04-18T08:04:38.095Z,94.75
2023-04-18T08:07:04.890Z,96.65
2023-04-18T08:09:31.857Z,92.96
2023-04-18T08:11:59.482Z,92.13
2023-04-18T08:14:26.126Z,92.32
2023-04-18T08:16:52.872Z,92.20
2023-04-18T08:19:19.455Z,89.16
2023-04-18T08:21:46.124Z,90.04
2023-04-18T08:24:12.710Z,91.59
2023-04-18T08:26:39.336Z,94.60
2023-04-18T08:29:06.498Z,97.24
2023-04-18T08:31:33.170Z,96.28
2023-04-18T08:33:59.851Z,97.38
2023-04-18T08:36:27.030Z,96.97
2023-04-18T08:38:53.822Z,96.66
2023-04-18T08:41:24.877Z,96.13
2023-04-18T08:43:51.626Z,95.65
2023-04-18T08:46:19.262Z,95.95
2023-04-18T08:48:49.720Z,94.25
2023-04-18T08:51:16.282Z,94.78
2023-04-18T08:53:44.869Z,95.33
2023-04-18T08:56:14.789Z,91.44
2023-04-18T08:58:41.441Z,90.88
2023-04-18T09:01:17.546Z,90.53
2023-04-18T09:03:44.331Z,92.16
2023-04-18T09:06:14.047Z,94.08
2023-04-18T09:08:44.542Z,92.91
2023-04-18T09:11:26.227Z,92.59
2023-04-18T09:13:53.430Z,91.50
2023-04-18T09:16:23.113Z,90.91
2023-04-18T09:19:13.066Z,87.77
2023-04-18T09:21:41.694Z,88.43
2023-04-18T09:24:25.009Z,87.16
2023-04-18T09:26:54.115Z,86.21
2023-04-18T09:29:23.723Z,88.67
2023-04-18T09:32:01.007Z,91.16
2023-04-18T09:34:28.875Z,94.31
2023-04-18T09:37:10.040Z,95.98
2023-04-18T09:39:42.589Z,97.14
2023-04-18T09:42:10.831Z,98.38
2023-04-18T09:44:39.098Z,97.61
2023-04-18T09:47:08.636Z,96.53
2023-04-18T09:49:35.406Z,95.02
2023-04-18T09:52:07.537Z,94.83
2023-04-18T09:54:38.010Z,93.57
2023-04-18T09:57:11.205Z,91.41
2023-04-18T09:59:47.849Z,92.00
2023-04-18T10:02:27.417Z,91.77
2023-04-18T10:04:54.433Z,92.07
2023-04-18T10:07:21.489Z,91.50
2023-04-18T10:09:49.361Z,90.01
2023-04-18T10:12:17.610Z,88.68
2023-04-18T10:14:44.709Z,83.84
2023-04-18T10:17:11.998Z,86.77
2023-04-18T10:19:42.195Z,85.58
2023-04-18T10:22:08.870Z,84.49
2023-04-18T10:24:57.225Z,84.41
2023-04-18T10:27:48.610Z,82.49
2023-04-18T10:30:16.965Z,82.91
2023-04-18T10:32:45.616Z,83.28
2023-04-18T10:35:12.375Z,82.06
2023-04-18T10:37:52.052Z,78.95
2023-04-18T10:40:34.789Z,78.02
2023-04-18T10:43:01.606Z,76.45
2023-04-18T10:45:31.102Z,75.18
2023-04-18T10:48:29.777Z,72.92
2023-04-18T10:51:16.345Z,73.48
2023-04-18T10:53:54.399Z,74.46
2023-04-18T10:56:21.025Z,73.34
2023-04-18T10:58:51.264Z,74.07
2023-04-18T11:04:15.521Z,80.32
2023-04-18T11:06:57.374Z,80.92
2023-04-18T11:09:24.910Z,82.40
2023-04-18T11:12:04.747Z,87.34
2023-04-18T11:14:41.279Z,86.33
2023-04-18T11:17:19.012Z,88.00
2023-04-18T11:19:46.197Z,87.96
2023-04-18T11:22:13.207Z,85.34
2023-04-18T11:24:39.808Z,83.28
2023-04-18T11:27:09.729Z,81.79
2023-04-18T11:29:36.466Z,78.01
2023-04-18T11:32:06.752Z,77.80
2023-04-18T11:34:34.056Z,74.39
2023-04-18T11:37:00.767Z,72.61
2023-04-18T11:39:27.646Z,74.79
2023-04-18T11:41:56.577Z,74.98
2023-04-18T11:44:24.957Z,74.41
2023-04-18T11:46:58.297Z,74.56
2023-04-18T11:49:28.037Z,76.50
2023-04-18T11:51:54.890Z,76.32
2023-04-18T11:54:36.698Z,76.21
2023-04-18T11:57:03.545Z,75.99
2023-04-18T11:59:30.470Z,72.10
2023-04-18T12:02:14.830Z,73.16
2023-04-18T12:04:58.993Z,67.90
2023-04-18T12:07:40.353Z,66.83
2023-04-18T12:10:09.628Z,66.69
2023-04-18T12:12:36.936Z,62.84
2023-04-18T12:15:15.111Z,63.63
2023-04-18T12:17:44.444Z,60.98
2023-04-18T12:20:11.875Z,58.42
2023-04-18T12:22:40.162Z,56.41
2023-04-18T12:25:14.405Z,50.64
2023-04-18T12:28:01.073Z,45.97
2023-04-18T12:30:31.298Z,40.68
2023-04-18T12:33:02.498Z,39.40
2023-04-18T12:35:30.646Z,42.23
2023-04-18T12:37:59.960Z,43.08
2023-04-18T12:40:27.718Z,46.48
2023-04-18T12:42:55.508Z,49.72
2023-04-18T12:45:23.425Z,50.63
2023-04-18T12:47:51.349Z,50.76
2023-04-18T12:50:20.233Z,49.75
2023-04-18T12:52:47.291Z,48.55
2023-04-18T12:55:14.702Z,48.67
2023-04-18T12:57:42.989Z,50.99
2023-04-18T13:00:11.316Z,56.13
2023-04-18T13:02:39.810Z,55.08
2023-04-18T13:05:08.517Z,56.50
2023-04-18T13:07:37.533Z,52.70
2023-04-18T13:10:04.996Z,50.50
2023-04-18T13:12:31.653Z,47.09
2023-04-18T13:14:58.257Z,44.54
2023-04-18T13:17:25.101Z,43.83
2023-04-18T13:19:52.125Z,42.72
2023-04-18T13:22:22.394Z,41.45
2023-04-18T13:24:49.104Z,42.56
2023-04-18T13:27:15.997Z,42.64
2023-04-18T13:29:44.000Z,39.79
2023-04-18T13:32:10.721Z,40.97
2023-04-18T13:34:39.936Z,42.24
2023-04-18T13:37:06.657Z,42.76
2023-04-18T13:39:34.221Z,42.19
2023-04-18T13:42:03.089Z,39.40
2023-04-18T13:44:30.868Z,40.89
2023-04-18T13:46:58.176Z,42.79
2023-04-18T13:49:24.758Z,45.27
2023-04-18T13:51:53.716Z,47.69
2023-04-18T13:54:20.440Z,51.13
2023-04-18T13:56:47.139Z,51.04
2023-04-18T13:59:14.016Z,50.99
2023-04-18T14:01:40.781Z,51.07
2023-04-18T14:04:07.524Z,51.01
2023-04-18T14:06:34.284Z,53.58
2023-04-18T14:09:07.121Z,55.21
2023-04-18T14:11:35.125Z,55.35
2023-04-18T14:14:02.474Z,55.22
2023-04-18T14:16:32.277Z,58.25
2023-04-18T14:19:00.296Z,59.85
2023-04-18T14:21:27.126Z,58.04
2023-04-18T14:23:54.148Z,61.93
2023-04-18T14:26:20.947Z,61.80
2023-04-18T14:28:47.921Z,63.69
2023-04-18T14:31:15.543Z,63.21
2023-04-18T14:33:42.664Z,62.02
2023-04-18T14:36:09.917Z,63.25
2023-04-18T14:38:37.122Z,64.87
2023-04-18T14:41:05.448Z,66.34
2023-04-18T14:43:32.391Z,69.38
2023-04-18T14:45:59.788Z,69.63
2023-04-18T14:48:27.420Z,68.06
2023-04-18T14:51:02.669Z,70.89
2023-04-18T14:53:29.328Z,71.45
2023-04-18T14:55:56.516Z,67.60
2023-04-18T14:58:23.325Z,67.17
2023-04-18T15:00:50.817Z,67.58
2023-04-18T15:03:17.636Z,64.41
2023-04-18T15:05:46.665Z,66.09
2023-04-18T15:08:14.670Z,65.78
2023-04-18T15:10:42.673Z,64.22
2023-04-18T15:13:09.963Z,61.64
2023-04-18T15:15:37.967Z,62.87
2023-04-18T15:18:04.997Z,62.64
2023-04-18T15:20:31.734Z,62.92
2023-04-18T15:22:58.383Z,65.64
2023-04-18T15:25:26.227Z,61.85
2023-04-18T15:27:53.268Z,64.17
2023-04-18T15:30:20.184Z,60.30
2023-04-18T15:32:48.556Z,59.99
2023-04-18T15:35:15.355Z,55.91
2023-04-18T15:37:42.065Z,47.86
2023-04-18T15:40:10.514Z,44.77
2023-04-18T15:42:37.291Z,45.05
2023-04-18T15:45:04.678Z,48.90
2023-04-18T15:47:33.809Z,44.11
2023-04-18T15:50:00.686Z,45.90
2023-04-18T15:52:27.331Z,44.51
2023-04-18T15:54:54.078Z,46.31
2023-04-18T15:57:21.218Z,46.46
2023-04-18T15:59:47.997Z,50.56
2023-04-18T16:02:14.667Z,47.85
2023-04-18T16:04:41.341Z,46.54
2023-04-18T16:07:08.960Z,41.65
2023-04-18T16:09:35.936Z,40.85
2023-04-18T16:12:03.522Z,38.92
2023-04-18T16:14:31.362Z,41.01
2023-04-18T16:16:59.882Z,45.91
2023-04-18T16:19:26.902Z,51.60
2023-04-18T16:21:53.484Z,57.27
2023-04-18T16:24:20.126Z,59.22
2023-04-18T16:26:46.911Z,66.92
2023-04-18T16:29:13.664Z,70.61
2023-04-18T16:31:41.673Z,70.68
2023-04-18T16:34:08.282Z,73.26
2023-04-18T16:36:34.951Z,76.57
2023-04-18T16:39:01.618Z,77.93
2023-04-18T16:41:28.256Z,80.46
2023-04-18T16:43:55.038Z,82.50
2023-04-18T16:46:21.759Z,83.75
2023-04-18T16:48:49.850Z,85.78
2023-04-18T16:51:18.607Z,88.15
2023-04-18T16:53:46.790Z,91.38
2023-04-18T16:56:13.411Z,89.88
2023-04-18T16:58:40.013Z,91.38
2023-04-18T17:01:08.338Z,90.34
2023-04-18T17:03:35.390Z,91.88
2023-04-18T17:06:02.231Z,91.87
2023-04-18T17:08:29.117Z,92.28
2023-04-18T17:10:55.786Z,92.39
2023-04-18T17:13:27.221Z,93.55
2023-04-18T17:15:54.386Z,94.72
2023-04-18T17:18:21.217Z,95.43
2023-04-18T17:20:48.102Z,97.17
2023-04-18T17:23:14.792Z,96.70
2023-04-18T17:25:41.455Z,97.06
2023-04-18T17:28:09.345Z,98.24
2023-04-18T17:30:40.001Z,98.75
2023-04-18T17:33:07.099Z,98.39
2023-04-18T17:35:33.858Z,100.00
2023-04-18T17:38:01.228Z,99.78
2023-04-18T17:40:28.311Z,99.34
2023-04-18T17:42:54.923Z,100.00
2023-04-18T17:45:21.680Z,100.00
2023-04-18T17:47:49.730Z,100.00
2023-04-18T17:50:16.734Z,100.00
2023-04-18T17:52:44.166Z,100.00
2023-04-18T17:55:10.810Z,100.00
2023-04-18T17:57:37.801Z,100.00
2023-04-18T18:00:10.502Z,100.00
2023-04-18T18:02:37.807Z,100.00
2023-04-18T18:05:05.752Z,100.00
2023-04-18T18:07:34.963Z,100.00
2023-04-18T18:10:02.636Z,100.00
2023-04-18T18:12:29.306Z,100.00
2023-04-18T18:14:57.502Z,100.00
2023-04-18T18:17:24.785Z,100.00
2023-04-18T18:19:51.412Z,100.00
2023-04-18T18:22:18.568Z,100.00
2023-04-18T18:24:45.688Z,100.00
2023-04-18T18:27:12.595Z,100.00
2023-04-18T18:29:39.226Z,100.00
2023-04-18T18:32:06.476Z,100.00
2023-04-18T18:34:33.086Z,100.00
2023-04-18T18:36:59.734Z,100.00
2023-04-18T18:39:26.331Z,100.00
2023-04-18T18:41:53.197Z,100.00
2023-04-18T18:44:19.824Z,100.00
2023-04-18T18:46:46.395Z,100.00
2023-04-18T18:49:13.305Z,100.00
2023-04-18T18:51:41.036Z,100.00
2023-04-18T18:54:07.683Z,100.00
2023-04-18T18:56:34.387Z,100.00
2023-04-18T18:59:01.139Z,100.00
2023-04-18T19:01:30.353Z,100.00
2023-04-18T19:03:57.171Z,100.00
2023-04-18T19:06:23.946Z,100.00
2023-04-18T19:08:50.516Z,100.00
2023-04-18T19:11:18.427Z,100.00
2023-04-18T19:13:46.129Z,100.00
2023-04-18T19:16:13.144Z,100.00
2023-04-18T19:18:41.704Z,100.00
2023-04-18T19:21:08.438Z,100.00
2023-04-18T19:23:36.149Z,100.00
2023-04-18T19:26:02.754Z,100.00
2023-04-18T19:28:29.382Z,100.00
2023-04-18T19:30:56.044Z,100.00
2023-04-18T19:33:24.661Z,100.00
2023-04-18T19:35:51.586Z,100.00
2023-04-18T19:38:18.270Z,100.00
2023-04-18T19:40:45.007Z,100.00
2023-04-18T19:43:12.073Z,100.00
2023-04-18T19:45:39.353Z,100.00
2023-04-18T19:48:06.612Z,100.00
2023-04-18T19:50:33.314Z,100.00
2023-04-18T19:52:59.918Z,100.00
2023-04-18T19:55:26.576Z,100.00
2023-04-18T19:57:56.036Z,100.00
2023-04-18T20:00:23.008Z,100.00
2023-04-18T20:02:50.015Z,100.00
2023-04-18T20:05:18.679Z,100.00
2023-04-18T20:07:45.478Z,100.00
2023-04-18T20:10:12.230Z,100.00
2023-04-18T20:12:38.929Z,100.00
2023-04-18T20:15:06.924Z,100.00
2023-04-18T20:17:34.874Z,100.00
2023-04-18T20:20:01.655Z,100.00
2023-04-18T20:22:28.589Z,100.00
2023-04-18T20:24:57.327Z,100.00
2023-04-18T20:27:24.113Z,100.00
2023-04-18T20:29:50.947Z,100.00
2023-04-18T20:32:17.622Z,100.00
2023-04-18T20:34:45.893Z,100.00
2023-04-18T20:37:16.133Z,100.00
2023-04-18T20:39:42.688Z,100.00
2023-04-18T20:42:14.417Z,100.00
2023-04-18T20:44:43.469Z,100.00
2023-04-18T20:47:10.295Z,100.00
2023-04-18T20:49:37.460Z,100.00
2023-04-18T20:52:08.417Z,100.00
2023-04-18T20:54:35.099Z,100.00
2023-04-18T20:57:01.766Z,100.00
2023-04-18T20:59:28.599Z,100.00
2023-04-18T21:01:55.272Z,100.00
2023-04-18T21:04:22.011Z,100.00
2023-04-18T21:06:48.663Z,100.00
2023-04-18T21:09:15.518Z,100.00
2023-04-18T21:11:42.299Z,100.00
2023-04-18T21:14:11.812Z,100.00
2023-04-18T21:16:39.868Z,100.00
2023-04-18T21:19:07.235Z,100.00
2023-04-18T21:21:34.520Z,100.00
2023-04-18T21:24:02.096Z,100.00
2023-04-18T21:26:29.066Z,100.00
2023-04-18T21:29:00.846Z,100.00
2023-04-18T21:31:29.965Z,100.00
2023-04-18T21:33:58.039Z,100.00
2023-04-18T21:36:27.097Z,100.00
2023-04-18T21:38:54.948Z,100.00
2023-04-18T21:41:22.298Z,100.00
2023-04-18T21:43:49.410Z,100.00
2023-04-18T21:46:16.766Z,100.00
2023-04-18T21:48:46.312Z,100.00
2023-04-18T21:51:14.859Z,100.00
2023-04-18T21:53:42.024Z,100.00
2023-04-18T21:56:08.911Z,100.00
2023-04-18T21:58:35.698Z,100.00
2023-04-18T22:01:02.768Z,100.00
2023-04-18T22:03:29.833Z,100.00
2023-04-18T22:05:56.814Z,100.00
2023-04-18T22:08:26.429Z,100.00
2023-04-18T22:10:55.096Z,100.00
2023-04-18T22:13:22.541Z,100.00
2023-04-18T22:15:50.098Z,100.00
2023-04-18T22:18:16.799Z,100.00
2023-04-18T22:20:43.695Z,100.00
2023-04-18T22:23:11.115Z,100.00
2023-04-18T22:25:37.899Z,100.00
2023-04-18T22:28:04.920Z,100.00
2023-04-18T22:30:32.206Z,100.00
2023-04-18T22:32:59.474Z,100.00
2023-04-18T22:35:27.195Z,100.00
2023-04-18T22:37:53.983Z,100.00
2023-04-18T22:40:20.674Z,100.00
2023-04-18T22:42:47.338Z,100.00
2023-04-18T22:45:14.831Z,100.00
2023-04-18T22:47:41.631Z,100.00
2023-04-18T22:50:08.760Z,100.00
2023-04-18T22:52:35.564Z,100.00
2023-04-18T22:55:03.041Z,100.00
2023-04-18T22:57:29.740Z,100.00
2023-04-18T22:59:56.662Z,100.00
2023-04-18T23:02:23.535Z,100.00
2023-04-18T23:04:50.729Z,100.00
2023-04-18T23:07:17.407Z,100.00
2023-04-18T23:09:43.976Z,100.00
2023-04-18T23:12:10.519Z,100.00
2023-04-18T23:14:37.195Z,100.00
2023-04-18T23:17:03.985Z,100.00
2023-04-18T23:19:30.653Z,100.00
2023-04-18T23:21:57.308Z,100.00
2023-04-18T23:24:23.857Z,100.00
2023-04-18T23:26:50.416Z,100.00
2023-04-18T23:29:16.991Z,100.00
2023-04-18T23:31:43.721Z,100.00
2023-04-18T23:34:10.783Z,100.00
2023-04-18T23:36:37.503Z,100.00
2023-04-18T23:39:04.519Z,100.00
2023-04-18T23:41:31.133Z,100.00
2023-04-18T23:43:57.716Z,100.00
2023-04-18T23:46:24.352Z,100.00
2023-04-18T23:48:51.100Z,100.00
2023-04-18T23:51:18.277Z,100.00
2023-04-18T23:53:44.894Z,100.00
2023-04-18T23:56:11.626Z,100.00
2023-04-18T23:58:38.191Z,100.00
